^^
Saratoga-Weather Station Historical Data
Daily Summary for January 16, 2020 Units:  English    Metric   Both
Daily Weekly Monthly Yearly Custom
  High: Low: Average:
Temperature: 48.7 °F 48.4 °F 48.7 °F
Dew Point: 45.7 °F 45.1 °F 45.3 °F
Humidity: 90% 88% 88%
Wind Speed: 4mph 0mph 1.1mph
Wind Gust: 9mph - -
Wind- - SSW
Pressure: 30.1 in 30.1 in -
Precipitation: 0 in    
Historical Graphs
 
 
Tabular Data for January 16, 2020
Time Temperature Dew Point Pressure Wind Wind Speed Wind Gust Humidity Rainfall Rate (Hourly) solar
00:01 48.4 °F 45.5 °F 30.1 in SSE 2 mph 2 mph 90% 0 in 0 W/m2
00:06 48.4 °F 45.5 °F 30.1 in NW 2 mph 2 mph 90% 0 in 0 W/m2
00:11 48.4 °F 45.3 °F 30.1 in NE 2 mph 3 mph 89% 0 in 0 W/m2
00:17 48.4 °F 45.3 °F 30.1 in East 0.9 mph 2 mph 89% 0 in 0 W/m2
00:22 48.4 °F 45.3 °F 30.1 in NW 0.9 mph 3 mph 89% 0 in 0 W/m2
00:27 48.4 °F 45.3 °F 30.1 in North 2.9 mph 4 mph 89% 0 in 0 W/m2
00:32 48.6 °F 45.5 °F 30.1 in SW 2.9 mph 4 mph 89% 0 in 0 W/m2
00:37 48.4 °F 45.3 °F 30.1 in ENE 0.9 mph 3 mph 89% 0 in 0 W/m2
00:42 48.6 °F 45.5 °F 30.1 in Calm   3 mph 89% 0 in 0 W/m2
00:47 48.6 °F 45.5 °F 30.1 in South 0.9 mph 3 mph 89% 0 in 0 W/m2
00:52 48.6 °F 45.5 °F 30.1 in SSW 0.9 mph 4 mph 89% 0 in 0 W/m2
00:57 48.6 °F 45.5 °F 30.1 in WNW 2 mph   89% 0 in 0 W/m2
01:02 48.6 °F 45.1 °F 30.1 in SSE 0.9 mph 4 mph 88% 0 in 0 W/m2
01:07 48.6 °F 45.1 °F 30.1 in North 2.9 mph 9 mph 88% 0 in 0 W/m2
01:12 48.6 °F 45.1 °F 30.1 in North 0.9 mph 5 mph 88% 0 in 0 W/m2
01:17 48.7 °F 45.3 °F 30.1 in Calm   9 mph 88% 0 in 0 W/m2
01:22 48.7 °F 45.3 °F 30.1 in North 0.9 mph 2 mph 88% 0 in 0 W/m2
01:27 48.7 °F 45.3 °F 30.1 in Calm   1 mph 88% 0 in 0 W/m2
01:32 48.7 °F 45.3 °F 30.1 in ESE 0.9 mph 2 mph 88% 0 in 0 W/m2
01:37 48.7 °F 45.3 °F 30.1 in NNE 0.9 mph 3 mph 88% 0 in 0 W/m2
01:42 48.7 °F 45.3 °F 30.1 in ESE 2 mph 3 mph 88% 0 in 0 W/m2
01:47 48.7 °F 45.3 °F 30.1 in North 2.9 mph 3 mph 88% 0 in 0 W/m2
01:52 48.7 °F 45.3 °F 30.1 in NNW 2 mph 3 mph 88% 0 in 0 W/m2
01:57 48.7 °F 45.3 °F 30.1 in North 2.9 mph 4 mph 88% 0 in 0 W/m2
02:02 48.7 °F 45.3 °F 30.1 in Calm   2 mph 88% 0 in 0 W/m2
02:07 48.7 °F 45.3 °F 30.1 in East 0.9 mph 3 mph 88% 0 in 0 W/m2
02:12 48.7 °F 45.3 °F 30.1 in East 0.9 mph 2 mph 88% 0 in 0 W/m2
02:17 48.6 °F 45.1 °F 30.1 in North 0.9 mph 4 mph 88% 0 in 0 W/m2
02:22 48.7 °F 45.3 °F 30.1 in Calm   2 mph 88% 0 in 0 W/m2
02:27 48.6 °F 45.1 °F 30.1 in SW 0.9 mph 2 mph 88% 0 in 0 W/m2
02:32 48.6 °F 45.1 °F 30.1 in Calm   1 mph 88% 0 in 0 W/m2
02:38 48.7 °F 45.7 °F 30.1 in ENE 2 mph 4 mph 89% 0 in 0 W/m2
02:43 48.7 °F 45.7 °F 30.1 in North 2 mph 3 mph 89% 0 in 0 W/m2
02:48 48.7 °F 45.7 °F 30.1 in North 2.9 mph 7 mph 89% 0 in 0 W/m2
02:53 48.7 °F 45.7 °F 30.1 in WNW 2 mph 6 mph 89% 0 in 0 W/m2
02:58 48.7 °F 45.3 °F 30.1 in Calm   3 mph 88% 0 in 0 W/m2
03:03 48.7 °F 45.3 °F 30.1 in Calm   3 mph 88% 0 in 0 W/m2
03:08 48.7 °F 45.3 °F 30.1 in NW 2 mph 3 mph 88% 0 in 0 W/m2
03:13 48.7 °F 45.3 °F 30.1 in West 0.9 mph 3 mph 88% 0 in 0 W/m2
03:18 48.7 °F 45.7 °F 30.1 in Calm   3 mph 89% 0 in 0 W/m2
03:23 48.7 °F 45.3 °F 30.1 in ENE 2 mph 3 mph 88% 0 in 0 W/m2
03:28 48.7 °F 45.3 °F 30.1 in WSW 0.9 mph 1 mph 88% 0 in 0 W/m2
03:33 48.7 °F 45.3 °F 30.1 in West 2 mph 2 mph 88% 0 in 0 W/m2
03:38 48.7 °F 45.3 °F 30.1 in NE 0.9 mph 2 mph 88% 0 in 0 W/m2
03:43 48.7 °F 45.3 °F 30.1 in Calm   2 mph 88% 0 in 0 W/m2
03:48 48.7 °F 45.3 °F 30.1 in Calm   3 mph 88% 0 in 0 W/m2
03:53 48.7 °F 45.3 °F 30.1 in Calm   2 mph 88% 0 in 0 W/m2
03:58 48.7 °F 45.3 °F 30.1 in Calm   4 mph 88% 0 in 0 W/m2
04:03 48.7 °F 45.3 °F 30.1 in NNW 0.9 mph 3 mph 88% 0 in 0 W/m2
04:08 48.7 °F 45.3 °F 30.1 in Calm   4 mph 88% 0 in 0 W/m2
04:13 48.7 °F 45.3 °F 30.1 in Calm   1 mph 88% 0 in 0 W/m2
04:18 48.7 °F 45.7 °F 30.1 in Calm   2 mph 89% 0 in 0 W/m2
04:23 48.7 °F 45.3 °F 30.1 in NW 0.9 mph 3 mph 88% 0 in 0 W/m2
04:28 48.7 °F 45.3 °F 30.1 in Calm   2 mph 88% 0 in 0 W/m2
04:34 48.7 °F 45.3 °F 30.1 in WNW 2 mph   88% 0 in 0 W/m2
04:39 48.7 °F 45.3 °F 30.1 in Calm   2 mph 88% 0 in 0 W/m2
04:44 48.7 °F 45.3 °F 30.1 in Calm   3 mph 88% 0 in 0 W/m2
04:49 48.7 °F 45.3 °F 30.1 in NNW 2.9 mph 4 mph 88% 0 in 0 W/m2
04:54 48.7 °F 45.3 °F 30.1 in NNW 2 mph 3 mph 88% 0 in 0 W/m2
04:59 48.7 °F 45.3 °F 30.1 in North 2.9 mph 9 mph 88% 0 in 0 W/m2
05:04 48.7 °F 45.3 °F 30.1 in North 0.9 mph 2 mph 88% 0 in 0 W/m2
05:09 48.7 °F 45.3 °F 30.1 in Calm   9 mph 88% 0 in 0 W/m2
05:14 48.7 °F 45.3 °F 30.1 in North 2.9 mph 5 mph 88% 0 in 0 W/m2
05:19 48.7 °F 45.3 °F 30.1 in North 0.9 mph 3 mph 88% 0 in 0 W/m2
05:24 48.7 °F 45.3 °F 30.1 in East 2 mph 6 mph 88% 0 in 0 W/m2
05:29 48.7 °F 45.3 °F 30.1 in East 0.9 mph 3 mph 88% 0 in 0 W/m2
05:34 48.7 °F 45.3 °F 30.1 in Calm   4 mph 88% 0 in 0 W/m2
05:39 48.7 °F 45.3 °F 30.1 in North 0.9 mph 2 mph 88% 0 in 0 W/m2
05:44 48.7 °F 45.3 °F 30.1 in Calm   2 mph 88% 0 in 0 W/m2
05:49 48.7 °F 45.3 °F 30.1 in Calm   3 mph 88% 0 in 0 W/m2
05:54 48.7 °F 45.3 °F 30.1 in SSE 0.9 mph 2 mph 88% 0 in 0 W/m2
05:59 48.7 °F 45.3 °F 30.1 in Calm   1 mph 88% 0 in 0 W/m2
06:04 48.7 °F 45.3 °F 30.1 in NNW 0.9 mph 3 mph 88% 0 in 0 W/m2
06:09 48.7 °F 45.3 °F 30.1 in NNE 0.9 mph 3 mph 88% 0 in 0 W/m2
06:14 48.7 °F 45.3 °F 30.1 in NNE 2 mph 3 mph 88% 0 in 0 W/m2
06:19 48.7 °F 45.3 °F 30.1 in Calm   5 mph 88% 0 in 0 W/m2
06:24 48.7 °F 45.3 °F 30.1 in Calm   4 mph 88% 0 in 0 W/m2
06:29 48.7 °F 45.3 °F 30.1 in Calm   2 mph 88% 0 in 0 W/m2
06:34 48.6 °F 45.1 °F 30.1 in NNW 0.9 mph 4 mph 88% 0 in 0 W/m2
06:39 48.6 °F 45.1 °F 30.1 in NW 0.9 mph 3 mph 88% 0 in 0 W/m2
06:44 48.6 °F 45.1 °F 30.1 in NNW 4 mph 6 mph 88% 0 in 0 W/m2
06:49 48.6 °F 45.1 °F 30.1 in East 2.9 mph 3 mph 88% 0 in 0 W/m2
06:54 48.6 °F 45.1 °F 30.1 in NE 2 mph 3 mph 88% 0 in 0 W/m2
Juneau County Weather
Compliments of Weather Underground - 2 mb